EDT,Max TemperatureF,Mean TemperatureF,Min TemperatureF,Max Dew PointF,MeanDew PointF,Min DewpointF,Max Humidity, Mean Humidity, Min Humidity, Max Sea Level PressureIn, Mean Sea Level PressureIn, Min Sea Level PressureIn, Max VisibilityMiles, Mean VisibilityMiles, Min VisibilityMiles, Max Wind SpeedMPH, Mean Wind SpeedMPH, Max Gust SpeedMPH,PrecipitationIn, CloudCover, Events, WindDirDegrees
2013-3-1,34,31,28,28,25,21,92,82,72,30.14,30.06,29.99,10,9,2,17,9,21,0.00,8,,6
2013-3-2,31,29,26,25,21,17,81,72,63,30.16,30.13,30.09,10,8,2,16,8,22,T,8,Snow,356
2013-3-3,34,26,17,18,16,14,84,66,47,30.17,30.13,30.09,10,10,10,13,5,16,0.00,2,,315
2013-3-4,37,28,18,28,21,15,84,68,52,30.15,30.07,29.99,10,9,2,17,9,23,0.01,5,Snow,109
2013-3-5,35,32,28,31,28,25,100,85,70,29.97,29.79,29.70,10,3,0,17,12,25,0.53,8,Fog-Rain-Snow,37
2013-3-6,31,30,28,27,26,24,92,89,85,30.31,30.10,29.84,10,7,1,22,11,29,0.02,8,Snow,334
2013-3-7,35,29,22,26,23,20,92,77,61,30.43,30.39,30.29,10,10,6,10,3,13,0.00,7,,307
2013-3-8,38,28,17,26,21,15,96,74,52,30.52,30.45,30.37,10,8,2,14,5,16,0.00,0,,117
2013-3-9,47,38,29,37,30,23,82,70,58,30.35,30.15,29.92,10,10,10,14,8,18,0.03,4,Rain,138
2013-3-10,66,55,44,48,40,32,62,52,42,29.90,29.80,29.70,10,10,10,21,10,31,0.04,5,Rain,188
2013-3-11,52,43,33,49,41,28,93,88,82,29.86,29.68,29.63,10,9,2,22,11,31,0.05,8,Rain,246
2013-3-12,41,36,30,30,26,21,85,68,50,30.05,29.98,29.86,10,8,1,22,13,30,0.01,8,Snow,275
2013-3-13,33,28,22,25,19,14,88,69,49,30.36,30.17,30.03,10,6,1,22,12,32,T,7,Snow,303
2013-3-14,39,30,20,30,24,16,92,68,44,30.37,30.27,30.16,10,9,6,12,5,15,T,5,Snow,237
2013-3-15,50,38,26,39,31,24,92,74,56,30.15,29.96,29.73,10,7,4,9,4,,T,3,Snow,204
2013-3-16,43,37,31,38,33,23,100,86,72,30.11,29.84,29.64,10,5,0,21,9,25,0.00,6,Fog,7
2013-3-17,40,35,30,25,23,21,72,61,50,30.19,30.10,29.98,10,10,10,24,13,31,0.00,6,,80
2013-3-18,38,32,26,36,30,20,96,83,69,29.97,29.76,29.62,10,7,1,32,13,43,0.03,8,Rain-Snow,96
2013-3-19,39,30,21,21,14,10,74,53,32,30.13,30.01,29.86,10,10,10,30,17,46,0.00,2,,280
2013-3-20,29,25,20,18,11,5,74,55,35,30.12,30.08,30.04,10,10,6,25,14,37,T,5,Snow,297
2013-3-21,35,25,14,15,9,7,80,58,35,30.08,30.05,30.02,10,10,4,16,7,21,T,1,Snow,313
2013-3-22,42,29,15,21,15,12,92,61,30,30.09,30.06,30.01,10,10,10,10,2,15,0.00,0,,270
2013-3-23,46,38,30,23,19,16,63,49,34,30.12,30.05,29.97,10,10,10,16,8,20,0.00,3,,55
2013-3-24,34,32,29,28,26,22,92,81,69,29.95,29.70,29.51,10,4,0,30,16,39,0.43,7,Fog-Snow,65
2013-3-25,35,32,28,30,27,24,92,78,64,30.05,29.75,29.58,10,3,0,20,13,24,0.09,8,Fog-Snow,337
2013-3-26,36,33,30,25,24,22,78,67,56,30.28,30.18,30.06,10,10,9,18,10,23,T,7,Snow,308
2013-3-27,40,31,21,25,22,19,100,72,44,30.35,30.32,30.28,10,10,5,16,6,22,0.00,3,,276
2013-3-28,46,35,23,26,23,21,88,64,40,30.39,30.35,30.32,10,10,8,10,3,20,0.00,1,,281
2013-3-29,54,40,26,31,28,24,85,63,41,30.34,30.29,30.23,10,10,9,10,2,14,0.00,4,,318
2013-3-30,56,42,27,35,30,24,92,64,35,30.25,30.11,29.93,10,9,4,13,3,18,0.00,1,,200
2013-3-31,62,50,38,43,40,31,100,70,40,29.89,29.82,29.75,10,7,2,23,9,29,0.01,6,Rain,270